createdAt,value
2018-12-08T00:00:20.675Z,4.27
2018-12-08T00:02:48.103Z,3.47
2018-12-08T00:05:15.501Z,2.73
2018-12-08T00:07:42.900Z,3.23
2018-12-08T00:10:10.346Z,4.63
2018-12-08T00:12:37.794Z,3.80
2018-12-08T00:15:05.779Z,4.43
2018-12-08T00:17:33.182Z,4.65
2018-12-08T00:20:00.582Z,4.40
2018-12-08T00:22:27.988Z,4.17
2018-12-08T00:24:55.397Z,3.52
2018-12-08T00:27:22.801Z,4.42
2018-12-08T00:29:50.196Z,6.10
2018-12-08T00:32:17.593Z,4.03
2018-12-08T00:34:45.002Z,4.80
2018-12-08T00:37:12.421Z,3.12
2018-12-08T00:39:39.845Z,4.40
2018-12-08T00:42:07.283Z,3.90
2018-12-08T00:44:34.736Z,5.50
2018-12-08T00:47:02.161Z,3.80
2018-12-08T00:49:29.559Z,4.37
2018-12-08T00:51:56.984Z,3.90
2018-12-08T00:54:24.413Z,3.93
2018-12-08T00:56:51.857Z,4.27
2018-12-08T00:59:19.285Z,3.20
2018-12-08T01:01:46.683Z,4.10
2018-12-08T01:04:14.086Z,3.60
2018-12-08T01:06:41.510Z,3.50
2018-12-08T01:09:08.946Z,3.70
2018-12-08T01:11:36.383Z,3.50
2018-12-08T01:14:03.978Z,4.40
2018-12-08T01:16:31.470Z,3.20
2018-12-08T01:18:58.883Z,3.50
2018-12-08T01:21:26.326Z,3.50
2018-12-08T01:23:53.738Z,4.62
2018-12-08T01:26:21.126Z,3.23
2018-12-08T01:28:48.559Z,3.80
2018-12-08T01:31:15.994Z,3.30
2018-12-08T01:33:43.764Z,3.17
2018-12-08T01:36:11.174Z,3.40
2018-12-08T01:38:38.578Z,3.90
2018-12-08T01:41:05.994Z,3.75
2018-12-08T01:43:33.404Z,2.90
2018-12-08T01:46:00.834Z,2.90
2018-12-08T01:48:28.249Z,2.53
2018-12-08T01:50:55.690Z,4.50
2018-12-08T01:53:23.100Z,3.30
2018-12-08T01:55:50.521Z,3.27
2018-12-08T01:58:17.925Z,4.30
2018-12-08T02:00:45.352Z,3.00
2018-12-08T02:03:12.754Z,3.27
2018-12-08T02:05:40.205Z,2.87
2018-12-08T02:08:07.631Z,3.90
2018-12-08T02:10:35.065Z,4.00
2018-12-08T02:13:02.475Z,3.77
2018-12-08T02:15:29.904Z,3.70
2018-12-08T02:17:57.317Z,3.72
2018-12-08T02:20:24.745Z,3.53
2018-12-08T02:22:52.157Z,3.83
2018-12-08T02:25:19.594Z,2.98
2018-12-08T02:27:47.017Z,3.43
2018-12-08T02:30:14.430Z,5.20
2018-12-08T02:32:41.845Z,2.80
2018-12-08T02:35:09.259Z,4.30
2018-12-08T02:37:36.655Z,2.80
2018-12-08T02:40:04.890Z,3.40
2018-12-08T02:42:32.313Z,4.45
2018-12-08T02:44:59.734Z,3.30
2018-12-08T02:47:27.146Z,3.40
2018-12-08T02:49:54.582Z,3.50
2018-12-08T02:52:22.123Z,3.70
2018-12-08T02:54:49.537Z,2.60
2018-12-08T02:57:17.044Z,3.53
2018-12-08T02:59:44.453Z,3.67
2018-12-08T03:02:11.873Z,3.00
2018-12-08T03:04:39.323Z,3.00
2018-12-08T03:07:06.713Z,3.58
2018-12-08T03:09:34.131Z,4.37
2018-12-08T03:12:01.587Z,3.03
2018-12-08T03:14:29.023Z,3.80
2018-12-08T03:16:56.495Z,3.20
2018-12-08T03:19:23.909Z,4.03
2018-12-08T03:21:51.316Z,2.57
2018-12-08T03:24:18.722Z,2.97
2018-12-08T03:26:46.120Z,3.27
2018-12-08T03:29:13.516Z,2.97
2018-12-08T03:31:40.914Z,3.20
2018-12-08T03:34:08.496Z,3.40
2018-12-08T03:36:35.906Z,5.07
2018-12-08T03:39:05.756Z,3.73
2018-12-08T03:41:33.292Z,3.93
2018-12-08T03:44:00.699Z,4.97
2018-12-08T03:46:28.143Z,4.20
2018-12-08T03:48:55.629Z,3.57
2018-12-08T03:51:23.074Z,3.47
2018-12-08T03:53:50.577Z,4.40
2018-12-08T03:56:18.016Z,3.63
2018-12-08T03:58:45.705Z,3.35
2018-12-08T04:01:13.119Z,3.10
2018-12-08T04:03:41.471Z,4.28
2018-12-08T04:06:08.986Z,3.22
2018-12-08T04:08:36.407Z,3.20
2018-12-08T04:11:03.934Z,3.45
2018-12-08T04:13:31.345Z,3.47
2018-12-08T04:15:58.762Z,2.93
2018-12-08T04:18:26.183Z,3.50
2018-12-08T04:20:53.680Z,2.98
2018-12-08T04:23:21.085Z,3.07
2018-12-08T04:25:48.506Z,2.87
2018-12-08T04:28:15.914Z,3.90
2018-12-08T04:30:43.330Z,3.20
2018-12-08T04:33:10.729Z,4.00
2018-12-08T04:35:38.141Z,3.93
2018-12-08T04:38:05.557Z,3.03
2018-12-08T04:40:33.073Z,3.87
2018-12-08T04:43:00.592Z,3.83
2018-12-08T04:45:27.994Z,3.93
2018-12-08T04:47:55.384Z,4.03
2018-12-08T04:50:22.780Z,4.20
2018-12-08T04:52:50.184Z,5.13
2018-12-08T04:55:17.793Z,4.67
2018-12-08T04:57:45.189Z,3.30
2018-12-08T05:00:12.628Z,4.50
2018-12-08T05:02:40.313Z,4.40
2018-12-08T05:05:07.722Z,3.83
2018-12-08T05:07:35.152Z,5.70
2018-12-08T05:10:02.605Z,4.43
2018-12-08T05:12:30.003Z,3.83
2018-12-08T05:14:57.421Z,4.43
2018-12-08T05:17:24.816Z,4.00
2018-12-08T05:19:52.238Z,4.33
2018-12-08T05:22:19.750Z,5.60
2018-12-08T05:24:47.155Z,4.20
2018-12-08T05:27:14.566Z,5.30
2018-12-08T05:29:41.986Z,4.67
2018-12-08T05:32:09.409Z,5.35
2018-12-08T05:34:36.840Z,4.55
2018-12-08T05:37:04.265Z,5.10
2018-12-08T05:39:31.653Z,5.00
2018-12-08T05:41:59.048Z,4.83
2018-12-08T05:44:26.467Z,5.90
2018-12-08T05:46:53.888Z,4.50
2018-12-08T05:49:21.292Z,5.42
2018-12-08T05:51:48.706Z,5.67
2018-12-08T05:54:16.142Z,6.43
2018-12-08T05:56:43.568Z,5.15
2018-12-08T05:59:11.069Z,5.43
2018-12-08T06:01:38.461Z,5.93
2018-12-08T06:04:05.868Z,6.20
2018-12-08T06:06:33.286Z,7.00
2018-12-08T06:09:00.798Z,6.27
2018-12-08T06:11:28.194Z,5.90
2018-12-08T06:13:55.618Z,6.25
2018-12-08T06:16:23.013Z,6.33
2018-12-08T06:18:50.432Z,5.63
2018-12-08T06:21:17.853Z,5.85
2018-12-08T06:23:45.284Z,6.92
2018-12-08T06:26:12.704Z,5.97
2018-12-08T06:28:40.133Z,6.37
2018-12-08T06:31:08.573Z,6.52
2018-12-08T06:33:35.969Z,8.05
2018-12-08T06:36:03.494Z,7.53
2018-12-08T06:38:30.897Z,7.12
2018-12-08T06:40:58.324Z,7.35
2018-12-08T06:43:25.766Z,7.35
2018-12-08T06:45:53.174Z,8.90
2018-12-08T06:48:20.569Z,8.70
2018-12-08T06:50:47.992Z,9.13
2018-12-08T06:53:15.393Z,8.70
2018-12-08T06:55:42.825Z,9.40
2018-12-08T06:58:10.253Z,8.40
2018-12-08T07:00:37.661Z,10.17
2018-12-08T07:03:05.082Z,8.53
2018-12-08T07:05:32.529Z,8.80
2018-12-08T07:07:59.920Z,9.40
2018-12-08T07:10:27.361Z,9.10
2018-12-08T07:12:54.798Z,8.53
2018-12-08T07:15:22.226Z,9.30
2018-12-08T07:17:49.644Z,8.80
2018-12-08T07:20:17.047Z,9.67
2018-12-08T07:22:44.462Z,8.57
2018-12-08T07:25:11.894Z,8.77
2018-12-08T07:27:39.301Z,9.83
2018-12-08T07:30:08.476Z,8.98
2018-12-08T07:32:38.921Z,8.58
2018-12-08T07:35:05.992Z,11.00
2018-12-08T07:37:33.408Z,9.23
2018-12-08T07:40:00.863Z,9.53
2018-12-08T07:42:28.397Z,9.07
2018-12-08T07:44:55.805Z,9.85
2018-12-08T07:47:23.218Z,10.00
2018-12-08T07:49:50.672Z,9.35
2018-12-08T07:52:18.107Z,9.83
2018-12-08T07:54:45.530Z,7.30
2018-12-08T07:57:12.945Z,7.80
2018-12-08T07:59:40.372Z,7.80
2018-12-08T08:02:07.798Z,6.83
2018-12-08T08:04:35.190Z,8.50
2018-12-08T08:07:02.613Z,8.30
2018-12-08T08:09:30.125Z,7.27
2018-12-08T08:11:57.541Z,8.20
2018-12-08T08:14:24.977Z,7.63
2018-12-08T08:16:52.401Z,9.07
2018-12-08T08:19:19.819Z,8.00
2018-12-08T08:21:47.230Z,7.23
2018-12-08T08:24:14.652Z,8.20
2018-12-08T08:26:42.052Z,7.63
2018-12-08T08:29:09.465Z,7.70
2018-12-08T08:31:36.962Z,7.57
2018-12-08T08:34:04.390Z,9.23
2018-12-08T08:36:31.839Z,9.40
2018-12-08T08:38:59.241Z,9.80
2018-12-08T08:41:26.684Z,9.00
2018-12-08T08:43:56.179Z,9.10
2018-12-08T08:46:23.555Z,9.40
2018-12-08T08:48:50.957Z,8.98
2018-12-08T08:51:18.377Z,8.93
2018-12-08T08:53:45.792Z,8.70
2018-12-08T08:56:13.296Z,10.77
2018-12-08T08:58:41.732Z,9.05
2018-12-08T09:01:09.146Z,9.53
2018-12-08T09:03:36.581Z,8.78
2018-12-08T09:06:04.043Z,8.15
2018-12-08T09:08:31.444Z,7.08
2018-12-08T09:10:58.868Z,6.45
2018-12-08T09:13:26.274Z,7.35
2018-12-08T09:15:53.707Z,6.55
2018-12-08T09:18:21.125Z,6.53
2018-12-08T09:20:48.650Z,7.90
2018-12-08T09:23:16.109Z,5.97
2018-12-08T09:25:43.520Z,6.83
2018-12-08T09:28:10.958Z,5.63
2018-12-08T09:30:38.377Z,6.37
2018-12-08T09:33:05.785Z,6.40
2018-12-08T09:35:33.203Z,8.20
2018-12-08T09:38:00.599Z,6.10
2018-12-08T09:40:28.030Z,6.03
2018-12-08T09:42:55.442Z,7.20
2018-12-08T09:45:22.871Z,5.30
2018-12-08T09:47:50.314Z,6.15
2018-12-08T09:50:17.725Z,5.70
2018-12-08T09:52:45.119Z,6.57
2018-12-08T09:55:12.524Z,6.30
2018-12-08T09:57:39.954Z,5.50
2018-12-08T10:00:07.490Z,5.10
2018-12-08T10:02:34.903Z,5.03
2018-12-08T10:05:02.347Z,4.20
2018-12-08T10:07:29.789Z,4.67
2018-12-08T10:09:57.225Z,4.73
2018-12-08T10:12:24.666Z,4.53
2018-12-08T10:14:52.093Z,5.73
2018-12-08T10:17:19.514Z,5.03
2018-12-08T10:19:46.961Z,5.43
2018-12-08T10:22:14.390Z,5.53
2018-12-08T10:24:41.784Z,5.67
2018-12-08T10:27:09.207Z,4.97
2018-12-08T10:29:36.667Z,5.33
2018-12-08T10:32:04.100Z,5.30
2018-12-08T10:34:31.526Z,5.13
2018-12-08T10:36:58.961Z,5.00
2018-12-08T10:39:26.364Z,4.90
2018-12-08T10:41:53.774Z,4.80
2018-12-08T10:44:21.177Z,4.30
2018-12-08T10:46:48.587Z,4.40
2018-12-08T10:49:15.993Z,3.67
2018-12-08T10:51:43.401Z,4.87
2018-12-08T10:54:10.813Z,4.67
2018-12-08T10:56:38.246Z,4.17
2018-12-08T10:59:05.648Z,4.70
2018-12-08T11:01:34.997Z,4.65
2018-12-08T11:04:02.441Z,4.67
2018-12-08T11:06:29.884Z,4.70
2018-12-08T11:08:57.322Z,4.30
2018-12-08T11:11:24.739Z,4.70
2018-12-08T11:13:52.165Z,5.23
2018-12-08T11:16:19.576Z,5.28
2018-12-08T11:18:46.989Z,4.77
2018-12-08T11:21:14.508Z,5.43
2018-12-08T11:23:42.965Z,5.38
2018-12-08T11:26:10.397Z,5.00
2018-12-08T11:28:37.827Z,5.10
2018-12-08T11:31:05.252Z,5.03
2018-12-08T11:33:32.660Z,5.12
2018-12-08T11:36:00.100Z,6.55
2018-12-08T11:38:27.610Z,6.05
2018-12-08T11:40:55.057Z,6.15
2018-12-08T11:43:23.554Z,6.20
2018-12-08T11:45:51.200Z,9.03
2018-12-08T11:48:18.610Z,6.58
2018-12-08T11:50:46.042Z,7.17
2018-12-08T11:53:13.534Z,6.43
2018-12-08T11:55:40.970Z,6.80
2018-12-08T11:58:08.421Z,6.60
2018-12-08T12:00:35.970Z,6.85
2018-12-08T12:03:03.613Z,5.80
2018-12-08T12:05:31.044Z,5.95
2018-12-08T12:07:58.445Z,5.30
2018-12-08T12:10:25.867Z,5.80
2018-12-08T12:12:53.289Z,4.60
2018-12-08T12:15:20.729Z,4.65
2018-12-08T12:17:48.202Z,4.70
2018-12-08T12:20:15.653Z,4.33
2018-12-08T12:22:43.096Z,5.67
2018-12-08T12:25:10.855Z,4.00
2018-12-08T12:27:38.277Z,3.60
2018-12-08T12:30:07.725Z,5.93
2018-12-08T12:32:35.142Z,3.87
2018-12-08T12:35:02.573Z,4.87
2018-12-08T12:37:30.000Z,5.30
2018-12-08T12:39:57.441Z,5.30
2018-12-08T12:42:24.877Z,4.77
2018-12-08T12:44:52.277Z,6.20
2018-12-08T12:47:19.675Z,5.30
2018-12-08T12:49:47.101Z,6.17
2018-12-08T12:52:14.522Z,6.33
2018-12-08T12:54:41.906Z,6.20
2018-12-08T12:57:09.336Z,6.50
2018-12-08T12:59:36.768Z,7.07
2018-12-08T13:02:04.190Z,7.23
2018-12-08T13:04:31.594Z,6.00
2018-12-08T13:06:59.008Z,5.87
2018-12-08T13:09:26.408Z,5.63
2018-12-08T13:11:53.937Z,5.50
2018-12-08T13:14:21.363Z,6.17
2018-12-08T13:16:48.764Z,5.87
2018-12-08T13:19:16.183Z,6.80
2018-12-08T13:21:43.704Z,5.93
2018-12-08T13:24:11.161Z,5.87
2018-12-08T13:26:38.570Z,5.47
2018-12-08T13:29:05.975Z,5.90
2018-12-08T13:31:33.395Z,5.60
2018-12-08T13:34:04.647Z,5.93
2018-12-08T13:36:32.054Z,5.33
2018-12-08T13:38:59.453Z,5.63
2018-12-08T13:41:26.877Z,4.77
2018-12-08T13:43:54.294Z,5.37
2018-12-08T13:46:21.739Z,4.80
2018-12-08T13:48:49.168Z,4.40
2018-12-08T13:51:16.594Z,4.22
2018-12-08T13:53:44.213Z,4.58
2018-12-08T13:56:11.825Z,3.70
2018-12-08T13:58:39.249Z,4.95
2018-12-08T14:01:06.698Z,6.20
2018-12-08T14:03:34.084Z,3.60
2018-12-08T14:06:01.513Z,3.50
2018-12-08T14:08:28.941Z,3.00
2018-12-08T14:10:56.338Z,3.15
2018-12-08T14:13:23.763Z,3.00
2018-12-08T14:15:51.176Z,2.98
2018-12-08T14:18:18.590Z,3.33
2018-12-08T14:20:46.114Z,2.50
2018-12-08T14:23:13.522Z,4.40
2018-12-08T14:25:40.926Z,3.62
2018-12-08T14:28:08.645Z,3.37
2018-12-08T14:30:36.077Z,2.60
2018-12-08T14:33:03.510Z,3.02
2018-12-08T14:35:30.958Z,2.87
2018-12-08T14:37:58.369Z,3.40
2018-12-08T14:40:25.776Z,4.25
2018-12-08T14:42:53.176Z,2.87
2018-12-08T14:45:20.613Z,2.60
2018-12-08T14:47:48.012Z,3.13
2018-12-08T14:50:15.426Z,2.80
2018-12-08T14:52:42.860Z,2.70
2018-12-08T14:55:10.317Z,2.30
2018-12-08T14:57:37.756Z,3.87
2018-12-08T15:00:07.549Z,3.63
2018-12-08T15:02:35.010Z,3.20
2018-12-08T15:05:02.464Z,2.53
2018-12-08T15:07:29.869Z,2.83
2018-12-08T15:09:57.714Z,3.57
2018-12-08T15:12:25.142Z,3.90
2018-12-08T15:14:52.549Z,3.80
2018-12-08T15:17:19.965Z,3.70
2018-12-08T15:19:47.371Z,3.00
2018-12-08T15:22:14.770Z,3.20
2018-12-08T15:24:42.166Z,2.90
2018-12-08T15:27:09.604Z,2.73
2018-12-08T15:29:37.027Z,2.63
2018-12-08T15:32:04.540Z,2.80
2018-12-08T15:34:31.954Z,3.80
2018-12-08T15:36:59.389Z,3.20
2018-12-08T15:39:26.817Z,3.13
2018-12-08T15:41:54.230Z,3.40
2018-12-08T15:44:21.670Z,3.67
2018-12-08T15:46:49.082Z,3.53
2018-12-08T15:49:16.495Z,3.30
2018-12-08T15:51:43.916Z,2.80
2018-12-08T15:54:11.341Z,4.17
2018-12-08T15:56:38.741Z,2.90
2018-12-08T15:59:06.159Z,3.23
2018-12-08T16:01:33.687Z,3.37
2018-12-08T16:04:01.085Z,4.20
2018-12-08T16:06:28.482Z,3.30
2018-12-08T16:08:55.892Z,2.87
2018-12-08T16:11:23.293Z,2.90
2018-12-08T16:13:50.729Z,4.33
2018-12-08T16:16:18.187Z,3.17
2018-12-08T16:18:45.611Z,3.40
2018-12-08T16:21:13.049Z,4.20
2018-12-08T16:23:41.411Z,3.47
2018-12-08T16:26:09.280Z,3.42
2018-12-08T16:28:36.689Z,3.45
2018-12-08T16:31:04.113Z,3.10
2018-12-08T16:33:31.542Z,3.33
2018-12-08T16:35:58.957Z,4.10
2018-12-08T16:38:26.395Z,3.80
2018-12-08T16:40:53.803Z,3.02
2018-12-08T16:43:21.221Z,2.90
2018-12-08T16:45:48.649Z,3.13
2018-12-08T16:48:16.100Z,2.50
2018-12-08T16:50:43.521Z,2.77
2018-12-08T16:53:10.965Z,3.53
2018-12-08T16:55:38.505Z,4.97
2018-12-08T16:58:05.932Z,5.20
2018-12-08T17:00:33.349Z,4.40
2018-12-08T17:03:00.783Z,4.40
2018-12-08T17:05:28.213Z,5.00
2018-12-08T17:07:55.844Z,4.00
2018-12-08T17:10:23.248Z,2.92
2018-12-08T17:12:50.671Z,3.67
2018-12-08T17:15:18.081Z,3.10
2018-12-08T17:17:45.529Z,3.97
2018-12-08T17:20:12.971Z,3.62
2018-12-08T17:22:40.490Z,3.50
2018-12-08T17:25:07.921Z,3.20
2018-12-08T17:27:35.340Z,2.30
2018-12-08T17:30:02.778Z,2.90
2018-12-08T17:32:30.180Z,3.63
2018-12-08T17:34:57.603Z,2.87
2018-12-08T17:37:25.042Z,3.80
2018-12-08T17:39:52.440Z,3.20
2018-12-08T17:42:19.862Z,4.03
2018-12-08T17:44:47.287Z,4.13
2018-12-08T17:47:14.701Z,3.70
2018-12-08T17:49:42.113Z,4.03
2018-12-08T17:52:09.554Z,3.50
2018-12-08T17:54:36.955Z,3.30
2018-12-08T17:57:04.397Z,4.40
2018-12-08T17:59:31.825Z,3.23
2018-12-08T18:01:59.287Z,3.85
2018-12-08T18:04:26.701Z,3.90
2018-12-08T18:06:54.142Z,2.87
2018-12-08T18:09:21.647Z,4.13
2018-12-08T18:11:49.088Z,4.57
2018-12-08T18:14:16.510Z,3.20
2018-12-08T18:16:43.942Z,3.30
2018-12-08T18:19:11.380Z,3.90
2018-12-08T18:21:38.788Z,3.33
2018-12-08T18:24:06.298Z,4.57
2018-12-08T18:26:33.779Z,3.57
2018-12-08T18:29:01.177Z,3.40
2018-12-08T18:31:28.592Z,4.40
2018-12-08T18:33:56.010Z,3.25
2018-12-08T18:36:23.431Z,2.47
2018-12-08T18:38:50.871Z,2.98
2018-12-08T18:41:18.302Z,3.53
2018-12-08T18:43:45.729Z,3.87
2018-12-08T18:46:13.129Z,3.83
2018-12-08T18:48:40.536Z,4.03
2018-12-08T18:51:07.965Z,3.30
2018-12-08T18:53:35.377Z,3.80
2018-12-08T18:56:02.837Z,3.40
2018-12-08T18:58:30.245Z,3.77
2018-12-08T19:00:57.646Z,3.42
2018-12-08T19:03:25.041Z,4.33
2018-12-08T19:05:52.478Z,4.00
2018-12-08T19:08:19.872Z,4.20
2018-12-08T19:10:47.277Z,4.60
2018-12-08T19:13:14.722Z,3.87
2018-12-08T19:15:42.149Z,3.63
2018-12-08T19:18:09.581Z,5.05
2018-12-08T19:20:37.048Z,4.40
2018-12-08T19:23:04.479Z,4.25
2018-12-08T19:25:31.977Z,5.30
2018-12-08T19:27:59.394Z,3.30
2018-12-08T19:30:26.837Z,4.03
2018-12-08T19:32:54.268Z,4.00
2018-12-08T19:35:21.697Z,5.77
2018-12-08T19:37:49.114Z,4.80
2018-12-08T19:40:16.534Z,4.95
2018-12-08T19:42:43.966Z,3.83
2018-12-08T19:45:11.415Z,4.63
2018-12-08T19:47:38.873Z,4.80
2018-12-08T19:50:06.810Z,3.70
2018-12-08T19:52:34.301Z,4.90
2018-12-08T19:55:01.775Z,3.40
2018-12-08T19:57:29.188Z,3.50
2018-12-08T19:59:56.602Z,4.10
2018-12-08T20:02:24.000Z,4.57
2018-12-08T20:04:51.419Z,3.90
2018-12-08T20:07:18.867Z,4.37
2018-12-08T20:09:46.281Z,4.10
2018-12-08T20:12:13.688Z,4.50
2018-12-08T20:14:41.120Z,3.77
2018-12-08T20:17:08.532Z,3.55
2018-12-08T20:19:35.952Z,3.33
2018-12-08T20:22:03.385Z,3.57
2018-12-08T20:24:30.804Z,4.30
2018-12-08T20:26:58.239Z,4.00
2018-12-08T20:29:25.669Z,3.50
2018-12-08T20:31:53.061Z,3.17
2018-12-08T20:34:20.486Z,4.30
2018-12-08T20:36:47.909Z,4.20
2018-12-08T20:39:15.344Z,3.80
2018-12-08T20:41:42.765Z,3.65
2018-12-08T20:44:11.524Z,4.17
2018-12-08T20:46:39.218Z,3.60
2018-12-08T20:49:06.625Z,3.67
2018-12-08T20:51:34.064Z,3.87
2018-12-08T20:54:01.491Z,4.30
2018-12-08T20:56:28.894Z,5.80
2018-12-08T20:58:56.283Z,6.40
2018-12-08T21:01:23.724Z,5.20
2018-12-08T21:03:51.136Z,11.30
2018-12-08T21:06:18.545Z,3.90
2018-12-08T21:08:45.974Z,5.50
2018-12-08T21:11:13.473Z,4.20
2018-12-08T21:13:40.878Z,5.70
2018-12-08T21:16:08.293Z,5.00
2018-12-08T21:18:35.793Z,4.63
2018-12-08T21:21:03.359Z,4.80
2018-12-08T21:23:30.761Z,4.05
2018-12-08T21:25:58.174Z,5.20
2018-12-08T21:28:25.630Z,5.97
2018-12-08T21:30:53.025Z,6.30
2018-12-08T21:33:20.470Z,4.47
2018-12-08T21:35:47.889Z,5.17
2018-12-08T21:38:16.137Z,4.37
2018-12-08T21:40:43.549Z,4.75
2018-12-08T21:43:10.980Z,5.50
2018-12-08T21:45:38.404Z,5.47
2018-12-08T21:48:05.939Z,5.17
2018-12-08T21:50:33.353Z,8.48
2018-12-08T21:53:00.749Z,5.30
2018-12-08T21:55:28.164Z,5.77
2018-12-08T21:57:55.593Z,5.67
2018-12-08T22:00:23.134Z,7.13
2018-12-08T22:02:50.561Z,5.73
2018-12-08T22:05:18.006Z,7.33
2018-12-08T22:07:45.519Z,6.10
2018-12-08T22:10:12.945Z,5.50
2018-12-08T22:12:40.379Z,5.67
2018-12-08T22:15:22.396Z,6.17
2018-12-08T22:17:49.805Z,6.03
2018-12-08T22:20:17.226Z,5.60
2018-12-08T22:22:44.734Z,5.60
2018-12-08T22:25:12.178Z,5.20
2018-12-08T22:27:39.609Z,5.40
2018-12-08T22:30:07.053Z,6.77
2018-12-08T22:32:34.465Z,4.85
2018-12-08T22:35:01.869Z,6.53
2018-12-08T22:37:29.390Z,6.30
2018-12-08T22:39:56.816Z,6.17
2018-12-08T22:42:24.227Z,6.27
2018-12-08T22:44:51.633Z,6.90
2018-12-08T22:47:19.042Z,6.93
2018-12-08T22:49:46.456Z,5.90
2018-12-08T22:52:13.890Z,7.00
2018-12-08T22:54:41.319Z,7.70
2018-12-08T22:57:08.777Z,9.25
2018-12-08T22:59:36.181Z,7.50
2018-12-08T23:02:03.669Z,7.63
2018-12-08T23:04:31.087Z,7.17
2018-12-08T23:07:01.778Z,10.58
2018-12-08T23:09:29.238Z,7.80
2018-12-08T23:11:56.737Z,7.90
2018-12-08T23:14:24.145Z,7.55
2018-12-08T23:16:51.551Z,8.23
2018-12-08T23:19:18.982Z,7.62
2018-12-08T23:21:47.134Z,8.70
2018-12-08T23:24:14.597Z,8.37
2018-12-08T23:26:42.033Z,8.63
2018-12-08T23:29:09.434Z,9.40
2018-12-08T23:31:36.893Z,10.17
2018-12-08T23:34:04.345Z,9.80
2018-12-08T23:36:31.817Z,8.83
2018-12-08T23:38:59.284Z,9.03
2018-12-08T23:41:26.708Z,8.63
2018-12-08T23:43:54.174Z,12.23
2018-12-08T23:46:22.561Z,8.75
2018-12-08T23:48:50.100Z,9.95
2018-12-08T23:51:18.572Z,10.80
2018-12-08T23:53:46.114Z,10.06
2018-12-08T23:56:13.559Z,12.60
2018-12-08T23:58:40.978Z,11.97
